KELZ/ELZ METAR and TAF weather

Enter ICAO airport designator
Station Type Date Time Source
KELZ METAR 2021/05/14 13:56 UTC NOAA

KELZ 141356Z AUTO 00000KT 10SM CLR 14/01 A3032 RMK AO2 SLP270 T01390011


Station Type Date Time Source
KELZ Decoded METAR 2021/05/14 13:56 UTC NOAA

WELLSVILLE MUNICIPAL AIRPORT, NY, United States (KELZ) 42-06N 077-60W 646M
May 14, 2021 - 09:56 AM EDT / 2021.05.14 1356 UTC
Wind: Calm:0
Visibility: 10 mile(s):0
Sky conditions: clear
Temperature: 57.0 F (13.9 C)
Dew Point: 34.0 F (1.1 C)
Relative Humidity: 41%
Pressure (altimeter): 30.32 in. Hg (1026 hPa)
ob: KELZ 141356Z AUTO 00000KT 10SM CLR 14/01 A3032 RMK AO2 SLP270 T01390011
cycle: 14

Station Type Date Time Source
KELZ TAF UTC NOAA

Error!

Example: see airport list